Time;durP1;ratioP1;P1;durP2;ratioP2;P2;SDS_P1;SDS_P2;PMS_P1;PMS_P2;Temp;Humidity;BMP_temperature;BMP_pressure;BME280_temperature;BME280_humidity;BME280_pressure;Samples;Min_cycle;Max_cycle;Signal;HPM_P1;HPM_P2
2021/03/30 00:02:11;;;;;;;8.43;3.80;;;;;;;14.10;53.51;100299.05;114335;1192;64346;-77
2021/03/30 00:04:38;;;;;;;7.37;4.50;;;;;;;14.08;53.26;100296.48;114265;1193;64395;-80
2021/03/30 00:07:04;;;;;;;9.80;3.80;;;;;;;14.07;53.45;100300.13;114230;1193;64284;-80
2021/03/30 00:09:31;;;;;;;11.57;4.73;;;;;;;14.10;53.32;100296.37;114279;1193;64532;-80
2021/03/30 00:11:59;;;;;;;8.47;4.40;;;;;;;14.08;53.14;100291.11;114626;1193;64295;-78
2021/03/30 00:14:26;;;;;;;8.97;4.37;;;;;;;14.09;53.21;100290.14;114243;1192;65683;-76
2021/03/30 00:16:53;;;;;;;9.93;4.20;;;;;;;14.06;53.08;100285.84;114610;1193;64358;-78
2021/03/30 00:19:19;;;;;;;8.73;3.60;;;;;;;14.08;53.05;100282.19;114255;1193;64400;-78
2021/03/30 00:21:46;;;;;;;9.27;4.20;;;;;;;14.08;52.85;100295.63;114226;1192;64442;-80
2021/03/30 00:24:13;;;;;;;13.20;4.73;;;;;;;14.09;53.01;100281.22;114233;1192;64363;-78
2021/03/30 00:26:40;;;;;;;8.20;3.97;;;;;;;14.04;52.60;100285.06;114505;1193;64352;-78
2021/03/30 00:29:07;;;;;;;11.93;4.73;;;;;;;14.06;52.46;100293.05;114188;1193;64368;-83
2021/03/30 00:31:34;;;;;;;15.33;4.93;;;;;;;14.13;52.84;100288.98;114288;1193;64368;-80
2021/03/30 00:34:00;;;;;;;9.60;4.00;;;;;;;14.12;52.63;100295.29;114364;1192;64372;-78
2021/03/30 00:36:27;;;;;;;10.67;4.30;;;;;;;14.09;53.02;100287.45;114226;1192;64366;-77
2021/03/30 00:38:54;;;;;;;10.17;4.03;;;;;;;14.04;52.62;100284.20;114230;1193;64371;-80
2021/03/30 00:41:20;;;;;;;11.27;4.40;;;;;;;14.03;52.66;100291.41;114415;1193;64446;-76
2021/03/30 00:43:47;;;;;;;7.20;4.47;;;;;;;14.00;52.56;100291.63;114569;1193;64426;-75
2021/03/30 00:46:17;;;;;;;10.83;4.83;;;;;;;14.01;52.51;100292.48;114210;1193;64454;-78
2021/03/30 00:48:50;;;;;;;11.00;4.87;;;;;;;14.01;52.52;100292.48;114422;1193;64461;-80
2021/03/30 00:51:18;;;;;;;12.10;4.20;;;;;;;13.94;52.28;100292.03;114237;1192;64478;-78
2021/03/30 00:53:57;;;;;;;13.50;4.50;;;;;;;13.91;52.40;100288.67;114325;1193;64448;-77
2021/03/30 00:56:47;;;;;;;9.20;4.10;;;;;;;13.87;52.58;100287.14;114622;1193;64365;-84
2021/03/30 00:59:16;;;;;;;9.45;4.20;;;;;;;13.86;52.43;100288.11;114252;1193;64356;-79
2021/03/30 01:01:45;;;;;;;8.43;4.30;;;;;;;13.84;52.55;100290.91;114368;1193;64480;-77
2021/03/30 01:04:13;;;;;;;11.07;4.60;;;;;;;13.78;52.35;100289.48;114336;1193;64526;-76
2021/03/30 01:06:40;;;;;;;10.83;4.43;;;;;;;13.76;52.17;100299.47;114362;1193;64445;-79
2021/03/30 01:09:10;;;;;;;16.60;4.30;;;;;;;13.74;52.12;100296.03;114697;1193;64314;-78
2021/03/30 01:12:05;;;;;;;12.33;5.37;;;;;;;13.76;52.15;100296.78;114284;1193;64400;-76
2021/03/30 01:14:53;;;;;;;10.50;4.70;;;;;;;13.75;52.10;100295.06;114273;1193;64446;-77
2021/03/30 01:17:40;;;;;;;11.95;4.60;;;;;;;13.67;51.93;100297.37;114510;1193;64366;-83
2021/03/30 01:20:09;;;;;;;10.20;4.70;;;;;;;13.63;52.29;100303.92;114294;1193;64908;-81
2021/03/30 01:22:59;;;;;;;9.20;4.73;;;;;;;13.60;52.32;100311.30;114429;1192;64295;-75
2021/03/30 01:25:28;;;;;;;12.83;5.03;;;;;;;13.52;52.06;100306.42;114279;1193;64391;-81
2021/03/30 01:28:03;;;;;;;7.53;4.60;;;;;;;13.51;51.95;100312.76;114436;1193;64362;-76
2021/03/30 01:30:33;;;;;;;11.90;4.07;;;;;;;13.39;52.00;100319.77;114330;1193;64292;-77
2021/03/30 01:33:14;;;;;;;8.77;4.50;;;;;;;13.31;52.06;100321.23;114240;1193;64387;-77
2021/03/30 01:35:43;;;;;;;10.33;5.33;;;;;;;13.22;52.32;100318.14;114215;1193;64458;-78
2021/03/30 01:38:12;;;;;;;9.90;4.47;;;;;;;13.13;51.95;100321.38;114307;1192;64535;-79
2021/03/30 01:40:41;;;;;;;10.55;4.50;;;;;;;13.07;52.28;100311.03;114333;1193;64497;-77
2021/03/30 01:43:11;;;;;;;12.63;4.80;;;;;;;12.97;52.03;100317.91;114349;1193;64368;-77
2021/03/30 01:45:38;;;;;;;13.37;4.70;;;;;;;12.86;52.00;100315.05;114505;1192;64311;-76
2021/03/30 01:48:05;;;;;;;12.30;4.47;;;;;;;12.80;52.13;100310.94;114376;1193;64356;-77
2021/03/30 01:50:34;;;;;;;12.03;4.70;;;;;;;12.78;52.20;100315.50;114297;1192;64545;-76
2021/03/30 01:53:03;;;;;;;11.80;4.85;;;;;;;12.70;52.26;100313.30;114318;1192;64430;-78
2021/03/30 01:55:31;;;;;;;12.80;5.05;;;;;;;12.67;51.95;100310.82;114325;1193;64378;-77
2021/03/30 01:57:59;;;;;;;6.90;3.80;;;;;;;12.60;52.03;100311.29;114354;1193;64480;-77
2021/03/30 02:00:32;;;;;;;12.90;4.80;;;;;;;12.56;52.02;100307.92;114262;1193;64359;-79
2021/03/30 02:03:00;;;;;;;11.10;4.40;;;;;;;12.53;52.38;100316.13;114281;1193;64491;-78
2021/03/30 02:05:28;;;;;;;8.80;4.50;;;;;;;12.50;52.22;100305.61;114737;1193;64365;-78
2021/03/30 02:07:58;;;;;;;6.33;3.87;;;;;;;12.51;52.00;100315.36;114407;1193;64427;-76
2021/03/30 02:10:35;;;;;;;8.57;4.00;;;;;;;12.46;51.91;100312.09;114280;1193;64346;-78
2021/03/30 02:13:05;;;;;;;9.00;4.50;;;;;;;12.40;52.12;100307.95;114371;1193;64362;-76
2021/03/30 02:15:33;;;;;;;9.57;4.33;;;;;;;12.35;51.89;100306.54;114239;1192;64391;-77
2021/03/30 02:18:06;;;;;;;11.90;4.60;;;;;;;12.32;51.82;100306.70;114337;1193;64368;-78
2021/03/30 02:20:42;;;;;;;13.40;4.70;;;;;;;12.30;51.79;100308.62;114277;1193;64356;-75
2021/03/30 02:23:16;;;;;;;17.23;4.67;;;;;;;12.27;51.88;100308.78;114382;1193;64391;-80
2021/03/30 02:25:47;;;;;;;13.73;5.47;;;;;;;12.22;51.92;100306.41;114397;1193;64410;-79
2021/03/30 02:28:20;;;;;;;8.60;4.10;;;;;;;12.21;52.09;100309.14;114358;1193;64567;-76
2021/03/30 02:30:48;;;;;;;13.20;4.63;;;;;;;12.17;52.16;100301.30;114527;1193;64372;-77
2021/03/30 02:33:21;;;;;;;10.23;4.53;;;;;;;12.14;52.14;100305.97;114385;1193;64461;-78
2021/03/30 02:35:49;;;;;;;10.57;4.50;;;;;;;12.11;51.95;100304.34;114310;1193;64406;-81
2021/03/30 02:38:17;;;;;;;9.33;5.33;;;;;;;12.02;52.09;100306.68;114230;1193;64369;-77
2021/03/30 02:40:47;;;;;;;19.67;4.93;;;;;;;12.00;52.26;100304.09;114434;1192;64531;-79
2021/03/30 02:43:18;;;;;;;15.03;5.70;;;;;;;12.01;52.01;100297.78;114303;1193;64407;-80
2021/03/30 02:45:47;;;;;;;10.30;4.70;;;;;;;12.07;52.05;100304.60;114278;1193;64394;-80
2021/03/30 02:48:14;;;;;;;10.40;4.73;;;;;;;12.10;51.92;100309.80;114377;1193;64379;-76
2021/03/30 02:50:41;;;;;;;19.33;5.73;;;;;;;12.16;52.09;100304.08;114462;1192;64375;-76
2021/03/30 02:53:08;;;;;;;7.87;4.57;;;;;;;12.10;51.92;100299.09;114374;1193;64327;-75
2021/03/30 02:55:36;;;;;;;16.07;5.27;;;;;;;12.08;51.83;100307.19;114393;1193;64372;-76
2021/03/30 02:58:06;;;;;;;10.90;5.43;;;;;;;12.05;52.04;100307.38;114374;1193;64327;-76
2021/03/30 03:00:34;;;;;;;9.65;4.55;;;;;;;12.04;52.13;100310.16;114715;1193;64333;-79
2021/03/30 03:03:04;;;;;;;10.77;5.17;;;;;;;12.02;52.16;100312.89;114374;1192;64375;-77
2021/03/30 03:05:31;;;;;;;11.93;4.87;;;;;;;12.01;52.02;100311.17;114260;1193;64401;-79
2021/03/30 03:07:59;;;;;;;12.33;5.10;;;;;;;12.00;51.95;100313.95;114289;1192;64385;-75
2021/03/30 03:10:26;;;;;;;13.87;5.37;;;;;;;11.95;51.83;100313.34;114499;1193;64445;-76
2021/03/30 03:12:55;;;;;;;9.50;5.07;;;;;;;11.86;51.97;100312.94;114299;1193;64336;-80
2021/03/30 03:15:22;;;;;;;12.33;4.53;;;;;;;11.83;51.75;100309.55;114384;1193;64406;-80
2021/03/30 03:17:52;;;;;;;11.00;5.15;;;;;;;11.85;52.09;100310.35;114336;1193;64359;-77
2021/03/30 03:20:20;;;;;;;12.07;5.47;;;;;;;11.80;52.14;100318.60;114270;1193;64299;-77
2021/03/30 03:22:48;;;;;;;20.17;7.43;;;;;;;11.72;52.04;100320.86;114217;1193;64359;-78
2021/03/30 03:25:18;;;;;;;14.10;5.70;;;;;;;11.68;52.21;100323.78;114278;1191;64365;-76
2021/03/30 03:27:45;;;;;;;13.00;5.90;;;;;;;11.73;51.89;100329.75;114267;1193;64368;-78
2021/03/30 03:30:12;;;;;;;12.27;5.50;;;;;;;11.73;51.83;100329.75;114609;1192;64605;-78
2021/03/30 03:32:40;;;;;;;11.50;5.40;;;;;;;11.69;51.83;100328.19;114218;1192;64414;-77
2021/03/30 03:35:12;;;;;;;16.43;6.50;;;;;;;11.67;51.89;100332.77;114325;1193;64395;-77
2021/03/30 03:37:43;;;;;;;12.85;5.15;;;;;;;11.64;51.82;100328.44;114272;1193;64356;-77
2021/03/30 03:40:11;;;;;;;11.80;5.63;;;;;;;11.61;51.92;100332.16;114251;1193;64339;-77
2021/03/30 03:42:39;;;;;;;11.53;6.20;;;;;;;11.53;52.27;100337.08;114307;1193;64477;-78
2021/03/30 03:45:08;;;;;;;12.67;6.10;;;;;;;11.50;51.84;100339.91;114544;1193;64362;-77
2021/03/30 03:47:35;;;;;;;9.87;5.30;;;;;;;11.49;52.10;100332.84;114232;1193;64327;-81
2021/03/30 03:50:02;;;;;;;14.13;6.63;;;;;;;11.44;51.81;100345.59;114242;1193;64748;-78
2021/03/30 03:52:53;;;;;;;10.47;5.03;;;;;;;11.39;52.18;100339.66;114274;1193;64336;-77
2021/03/30 03:55:21;;;;;;;11.83;5.10;;;;;;;11.31;52.12;100339.20;114338;1193;64368;-78
2021/03/30 03:57:47;;;;;;;11.25;5.40;;;;;;;11.29;52.02;100346.45;114253;1193;64410;-80
2021/03/30 04:00:15;;;;;;;18.07;6.23;;;;;;;11.24;51.97;100353.86;114488;1191;64302;-80
2021/03/30 04:03:00;;;;;;;17.30;5.30;;;;;;;11.21;51.89;100351.36;114357;1193;64530;-80
2021/03/30 04:05:36;;;;;;;9.50;5.30;;;;;;;11.15;52.19;100352.55;114300;1193;64439;-78
2021/03/30 04:08:15;;;;;;;15.07;5.83;;;;;;;11.09;52.05;100355.55;114314;1193;64397;-78
2021/03/30 04:10:47;;;;;;;15.47;5.77;;;;;;;11.04;52.11;100360.27;114277;1193;64346;-80
2021/03/30 04:13:18;;;;;;;16.63;6.23;;;;;;;10.97;52.15;100365.08;114291;1193;64359;-81
2021/03/30 04:15:46;;;;;;;15.40;5.60;;;;;;;10.88;52.28;100362.91;114549;1192;64288;-80
2021/03/30 04:18:12;;;;;;;12.17;5.67;;;;;;;10.91;52.26;100360.06;114252;1193;64624;-77
2021/03/30 04:20:40;;;;;;;10.70;5.63;;;;;;;11.00;52.17;100361.38;114652;1193;64340;-76
2021/03/30 04:23:06;;;;;;;11.17;5.23;;;;;;;11.05;52.34;100362.00;114297;1193;64362;-78
2021/03/30 04:25:33;;;;;;;19.77;5.13;;;;;;;11.06;52.19;100361.91;114368;1192;64324;-78
2021/03/30 04:28:00;;;;;;;9.70;5.07;;;;;;;11.07;52.13;100365.48;114881;1193;64361;-78
2021/03/30 04:30:26;;;;;;;9.70;5.30;;;;;;;11.03;52.48;100372.78;114234;1192;64406;-77
2021/03/30 04:32:53;;;;;;;17.30;5.40;;;;;;;11.04;52.33;100360.27;114241;1193;64352;-78
2021/03/30 04:35:20;;;;;;;18.60;6.30;;;;;;;11.03;52.19;100369.25;114299;1192;64346;-77
2021/03/30 04:37:47;;;;;;;13.30;5.80;;;;;;;10.98;52.27;100372.16;114251;1193;64677;-82
2021/03/30 04:40:14;;;;;;;21.75;6.65;;;;;;;10.97;52.39;100375.78;114381;1193;64403;-82
2021/03/30 04:42:41;;;;;;;16.30;6.47;;;;;;;10.99;52.22;100367.67;114671;1193;64403;-80
2021/03/30 04:45:10;;;;;;;12.95;6.60;;;;;;;10.98;52.19;100372.16;114266;1193;64330;-76
2021/03/30 04:47:37;;;;;;;19.30;7.03;;;;;;;10.99;52.38;100368.53;114256;1193;64307;-77
2021/03/30 04:50:06;;;;;;;12.10;6.80;;;;;;;11.03;52.44;100372.78;114267;1192;64359;-80
2021/03/30 04:52:35;;;;;;;14.95;7.40;;;;;;;11.06;52.29;100372.60;114310;1193;64330;-76
2021/03/30 04:55:01;;;;;;;15.13;6.83;;;;;;;11.06;52.38;100375.28;114273;1193;64406;-79
2021/03/30 04:57:28;;;;;;;25.75;7.50;;;;;;;11.07;52.37;100371.69;114265;1193;64381;-79
2021/03/30 04:59:54;;;;;;;22.10;7.37;;;;;;;11.13;52.13;100381.16;114812;1192;64496;-77
2021/03/30 05:02:21;;;;;;;22.33;6.50;;;;;;;11.15;52.10;100394.47;114297;1192;64448;-76
2021/03/30 05:04:49;;;;;;;14.15;6.90;;;;;;;11.16;52.32;100380.15;114283;1193;64362;-76
2021/03/30 05:07:16;;;;;;;13.87;6.50;;;;;;;11.18;52.07;100384.45;114320;1192;64397;-76
2021/03/30 05:09:43;;;;;;;12.60;6.00;;;;;;;11.20;52.10;100385.27;114411;1193;64493;-75
2021/03/30 05:12:10;;;;;;;17.37;8.57;;;;;;;11.26;52.33;100382.26;114480;1193;64362;-75
2021/03/30 05:14:36;;;;;;;15.70;7.10;;;;;;;11.37;52.04;100376.31;114404;1193;64339;-75
2021/03/30 05:17:03;;;;;;;17.00;6.93;;;;;;;11.47;52.02;100385.57;114237;1193;64419;-79
2021/03/30 05:19:30;;;;;;;18.53;7.63;;;;;;;11.56;52.38;100390.41;114246;1193;64359;-77
2021/03/30 05:21:56;;;;;;;11.55;7.05;;;;;;;11.58;52.27;100380.50;114297;1193;64580;-80
2021/03/30 05:24:23;;;;;;;15.33;7.27;;;;;;;11.60;52.08;100391.97;114257;1193;64423;-77
2021/03/30 05:26:49;;;;;;;18.95;6.25;;;;;;;11.63;51.98;100390.93;114316;1193;64323;-75
2021/03/30 05:29:16;;;;;;;13.03;6.87;;;;;;;11.67;52.16;100381.80;114295;1193;64362;-79
2021/03/30 05:31:42;;;;;;;13.85;6.35;;;;;;;11.74;52.06;100391.20;114248;1192;64384;-80
2021/03/30 05:34:09;;;;;;;13.17;6.00;;;;;;;11.85;51.71;100387.97;114245;1193;64455;-76
2021/03/30 05:36:36;;;;;;;10.30;5.30;;;;;;;12.09;51.82;100393.77;114279;1193;64371;-78
2021/03/30 05:39:03;;;;;;;19.53;7.17;;;;;;;12.28;51.87;100389.07;114205;1193;64343;-76
2021/03/30 05:41:30;;;;;;;12.70;6.27;;;;;;;12.48;51.94;100400.44;114229;1193;64292;-78
2021/03/30 05:43:57;;;;;;;15.37;6.50;;;;;;;12.85;51.89;100394.63;114322;1193;64352;-78
2021/03/30 05:46:24;;;;;;;13.47;6.53;;;;;;;13.11;51.69;100395.72;114374;1192;64490;-78
2021/03/30 05:48:52;;;;;;;20.70;6.73;;;;;;;13.26;51.48;100385.89;114363;1193;64285;-78
2021/03/30 05:51:21;;;;;;;12.93;6.23;;;;;;;13.34;51.26;100393.45;114553;1193;64314;-76
2021/03/30 05:53:54;;;;;;;19.70;7.60;;;;;;;13.48;51.41;100390.77;114458;1193;64356;-79
2021/03/30 05:56:22;;;;;;;17.13;7.00;;;;;;;13.62;51.17;100398.83;114381;1193;64375;-76
2021/03/30 05:58:50;;;;;;;16.93;6.37;;;;;;;13.66;51.38;100389.61;114342;1193;64494;-81
2021/03/30 06:01:19;;;;;;;16.17;7.00;;;;;;;13.70;51.15;100387.60;114320;1193;64343;-81
2021/03/30 06:03:47;;;;;;;17.97;7.47;;;;;;;13.78;51.14;100390.65;114407;1193;64551;-78
2021/03/30 06:06:16;;;;;;;21.30;7.00;;;;;;;13.99;50.99;100389.25;114525;1193;64378;-79
2021/03/30 06:08:43;;;;;;;20.55;7.45;;;;;;;14.11;51.02;100395.66;114438;1193;64289;-77
2021/03/30 06:11:12;;;;;;;16.23;7.73;;;;;;;14.16;51.11;100389.98;114345;1193;64445;-76
2021/03/30 06:13:56;;;;;;;18.05;8.70;;;;;;;14.19;51.04;100393.34;114459;1193;64362;-81
2021/03/30 06:16:32;;;;;;;24.10;9.15;;;;;;;14.21;50.84;100398.61;114355;1193;64342;-76
2021/03/30 06:19:09;;;;;;;18.97;8.40;;;;;;;14.18;50.91;100410.41;114369;1192;64407;-77
2021/03/30 06:22:01;;;;;;;17.23;7.57;;;;;;;14.17;51.01;100394.39;114609;1193;64385;-77
2021/03/30 06:24:31;;;;;;;17.90;8.33;;;;;;;14.16;50.91;100401.59;114280;1192;64522;-79
2021/03/30 06:27:19;;;;;;;18.20;10.50;;;;;;;14.20;50.90;100402.27;114292;1193;64321;-81
2021/03/30 06:29:48;;;;;;;17.37;8.23;;;;;;;14.24;50.77;100399.25;114295;1193;64337;-82
2021/03/30 06:32:21;;;;;;;15.57;6.97;;;;;;;14.25;50.76;100402.80;114364;1193;64372;-77
2021/03/30 06:34:53;;;;;;;26.60;8.75;;;;;;;14.30;50.67;100406.05;114632;1193;64356;-82
2021/03/30 06:37:28;;;;;;;18.70;7.45;;;;;;;14.34;50.75;100405.75;114358;1193;64372;-77
2021/03/30 06:39:59;;;;;;;17.08;7.80;;;;;;;14.45;50.75;100406.88;114404;1193;64787;-76
2021/03/30 06:45:19;;;;;;;25.83;9.30;;;;;;;14.65;50.47;100409.13;114452;1193;64503;-77
2021/03/30 06:48:03;;;;;;;19.20;7.80;;;;;;;14.75;50.47;100409.34;114269;1193;64368;-81
2021/03/30 06:50:40;;;;;;;19.57;7.93;;;;;;;14.80;50.34;100410.76;114398;1193;64509;-78
2021/03/30 06:53:18;;;;;;;20.70;9.67;;;;;;;14.88;50.24;100419.16;114311;1193;64324;-76
2021/03/30 06:55:53;;;;;;;29.17;10.00;;;;;;;14.97;50.59;100416.83;114258;1192;64506;-77
2021/03/30 06:58:23;;;;;;;25.20;11.23;;;;;;;15.12;50.54;100423.83;114287;1193;64301;-77
2021/03/30 07:00:50;;;;;;;27.10;11.40;;;;;;;15.24;50.24;100428.36;114223;1193;64378;-77
2021/03/30 07:03:20;;;;;;;27.17;12.67;;;;;;;15.32;50.04;100425.98;114236;1193;64337;-80
2021/03/30 07:05:49;;;;;;;32.87;11.63;;;;;;;15.46;50.04;100422.35;114286;1193;64473;-81
2021/03/30 07:08:21;;;;;;;25.90;10.55;;;;;;;15.65;50.01;100427.33;114377;1193;64352;-77
2021/03/30 07:10:50;;;;;;;34.35;12.15;;;;;;;15.82;50.22;100426.95;114319;1193;64451;-80
2021/03/30 07:13:19;;;;;;;23.73;10.30;;;;;;;16.04;49.88;100425.41;114395;1193;64378;-77
2021/03/30 07:15:46;;;;;;;28.10;10.70;;;;;;;16.20;50.02;100425.99;114332;1193;64561;-76
2021/03/30 07:18:36;;;;;;;29.75;11.15;;;;;;;16.35;49.94;100418.59;114306;1193;64363;-79
2021/03/30 07:21:12;;;;;;;29.23;11.60;;;;;;;16.45;49.65;100419.64;114312;1193;64295;-77
2021/03/30 07:23:45;;;;;;;34.40;12.40;;;;;;;16.56;49.56;100426.94;114357;1193;64362;-78
2021/03/30 07:26:15;;;;;;;23.53;10.90;;;;;;;16.71;49.30;100423.96;114333;1192;64443;-78
2021/03/30 07:29:06;;;;;;;26.95;9.15;;;;;;;16.78;49.27;100424.36;114299;1193;64551;-79
2021/03/30 07:31:58;;;;;;;25.90;8.83;;;;;;;16.87;49.41;100423.67;114218;1193;64391;-76
2021/03/30 07:34:34;;;;;;;20.50;8.37;;;;;;;17.01;49.18;100425.30;114255;1193;64327;-78
2021/03/30 07:37:05;;;;;;;29.50;10.80;;;;;;;17.26;49.41;100425.12;114259;1193;64238;-79
2021/03/30 07:39:43;;;;;;;19.97;9.23;;;;;;;17.49;49.19;100433.23;114332;1193;64423;-79
2021/03/30 07:42:11;;;;;;;14.40;8.20;;;;;;;17.68;47.82;100421.83;114359;1193;64420;-76
2021/03/30 07:44:40;;;;;;;14.33;7.27;;;;;;;17.80;48.87;100431.69;114401;1193;64375;-81
2021/03/30 07:47:07;;;;;;;20.07;11.43;;;;;;;17.91;49.08;100433.53;114700;1193;64416;-78
2021/03/30 07:49:40;;;;;;;15.27;8.20;;;;;;;18.07;48.58;100431.32;114327;1192;64471;-78
2021/03/30 07:52:17;;;;;;;26.87;12.87;;;;;;;18.05;48.36;100434.13;114359;1192;64356;-80
2021/03/30 07:55:12;;;;;;;12.53;7.77;;;;;;;18.10;47.86;100439.17;114329;1193;64356;-76
2021/03/30 07:57:54;;;;;;;15.43;8.50;;;;;;;18.16;48.06;100438.67;114550;1193;64359;-81
2021/03/30 08:00:49;;;;;;;13.23;8.53;;;;;;;18.17;46.33;100431.41;114254;1193;64445;-77
2021/03/30 08:03:31;;;;;;;17.13;8.90;;;;;;;18.10;47.22;100441.88;114312;1192;64372;-77
2021/03/30 08:06:17;;;;;;;13.03;8.47;;;;;;;18.04;47.24;100448.63;114282;1192;64448;-81
2021/03/30 08:08:46;;;;;;;18.40;9.40;;;;;;;18.08;46.00;100443.85;114564;1193;64289;-82
2021/03/30 08:11:15;;;;;;;15.33;8.53;;;;;;;18.12;47.05;100447.14;114383;1192;64253;-78
2021/03/30 08:13:54;;;;;;;17.90;8.85;;;;;;;18.23;47.48;100453.40;114349;1193;64343;-78
2021/03/30 08:16:21;;;;;;;16.05;9.40;;;;;;;18.30;46.55;100442.94;114412;1193;64381;-79
2021/03/30 08:18:49;;;;;;;21.77;9.37;;;;;;;18.30;47.69;100441.09;114303;1193;64331;-78
2021/03/30 08:21:21;;;;;;;16.10;8.70;;;;;;;18.48;47.77;100445.98;114397;1193;64455;-79
2021/03/30 08:23:56;;;;;;;22.00;10.70;;;;;;;18.69;47.48;100443.34;114371;1193;64361;-76
2021/03/30 08:26:29;;;;;;;;;;;;;;;18.79;46.78;100437.05;114357;1198;64369;-77
2021/03/30 08:29:11;;;;;;;16.77;8.97;;;;;;;18.77;47.22;100446.30;114412;1193;64288;-77
2021/03/30 08:31:42;;;;;;;19.17;9.70;;;;;;;18.69;46.82;100438.80;114301;1193;64400;-82
2021/03/30 08:34:15;;;;;;;15.00;9.10;;;;;;;18.76;47.47;100439.14;114385;1193;64484;-77
2021/03/30 08:36:44;;;;;;;19.53;11.10;;;;;;;18.91;47.01;100437.86;114334;1193;64295;-77
2021/03/30 08:39:18;;;;;;;20.37;11.03;;;;;;;19.04;47.58;100443.94;114294;1193;64289;-80
2021/03/30 08:41:49;;;;;;;25.37;11.13;;;;;;;19.14;46.90;100444.85;114315;1193;64362;-77
2021/03/30 08:44:34;;;;;;;16.10;10.40;;;;;;;19.11;47.21;100447.84;114266;1193;64407;-77
2021/03/30 08:47:01;;;;;;;19.88;9.95;;;;;;;19.16;46.77;100447.45;114274;1193;64333;-80
2021/03/30 08:49:32;;;;;;;24.33;12.97;;;;;;;19.16;47.21;100458.28;114499;1193;64324;-77
2021/03/30 08:52:10;;;;;;;16.50;10.63;;;;;;;19.21;46.93;100455.16;114403;1193;64448;-79
2021/03/30 08:54:59;;;;;;;22.60;11.10;;;;;;;19.29;47.15;100449.97;114433;1193;64364;-78
2021/03/30 08:57:33;;;;;;;17.40;10.00;;;;;;;19.44;47.49;100454.89;114538;1193;64420;-78
2021/03/30 09:00:11;;;;;;;24.87;10.37;;;;;;;19.53;46.65;100450.55;114451;1193;64940;-77
2021/03/30 09:02:39;;;;;;;19.80;10.70;;;;;;;19.65;46.84;100441.34;114512;1192;64406;-77
2021/03/30 09:05:16;;;;;;;15.45;9.55;;;;;;;19.78;46.78;100437.55;114519;1193;64243;-76
2021/03/30 09:07:48;;;;;;;;;;;;;;;19.84;45.50;100443.29;114762;1198;64391;-77
2021/03/30 09:10:18;;;;;;;17.05;9.55;;;;;;;19.68;45.73;100442.95;114568;1193;64397;-77
2021/03/30 09:13:27;;;;;;;13.60;9.03;;;;;;;19.61;46.05;100448.05;114672;1193;64451;-76
2021/03/30 09:16:13;;;;;;;45.15;22.15;;;;;;;19.64;46.64;100449.62;114515;1193;64359;-77
2021/03/30 09:18:45;;;;;;;22.10;11.97;;;;;;;19.69;46.38;100445.52;114503;1193;64305;-80
2021/03/30 09:21:18;;;;;;;20.20;11.87;;;;;;;19.55;45.88;100450.41;114510;1192;64372;-77
2021/03/30 09:23:55;;;;;;;17.10;9.87;;;;;;;19.59;46.45;100449.16;114499;1193;64365;-77
2021/03/30 09:26:31;;;;;;;24.90;14.07;;;;;;;19.64;45.92;100444.20;114431;1193;64541;-78
2021/03/30 09:29:00;;;;;;;57.30;28.85;;;;;;;19.75;46.46;100451.39;114403;1193;64455;-78
2021/03/30 09:31:29;;;;;;;26.00;14.23;;;;;;;19.78;45.80;100442.97;114606;1193;64378;-77
2021/03/30 09:33:58;;;;;;;66.80;34.07;;;;;;;19.95;46.52;100439.63;114574;1192;65742;-76
2021/03/30 09:36:26;;;;;;;27.87;15.17;;;;;;;20.05;45.76;100445.96;114569;1193;64391;-77
2021/03/30 09:39:09;;;;;;;30.73;18.17;;;;;;;20.05;46.48;100443.25;114498;1192;64365;-75
2021/03/30 09:41:45;;;;;;;19.57;9.57;;;;;;;20.09;45.79;100435.67;114488;1193;64452;-76
2021/03/30 09:44:23;;;;;;;17.17;9.70;;;;;;;20.07;45.76;100433.11;114530;1193;64407;-75
2021/03/30 09:46:56;;;;;;;12.63;8.60;;;;;;;20.23;45.50;100435.28;114487;1193;64391;-78
2021/03/30 09:49:34;;;;;;;24.70;11.45;;;;;;;20.23;45.97;100435.28;114490;1193;64435;-76
2021/03/30 09:52:14;;;;;;;15.87;10.20;;;;;;;20.31;46.08;100431.90;114503;1193;64427;-77
2021/03/30 09:54:47;;;;;;;26.80;13.37;;;;;;;20.38;45.62;100433.05;114512;1193;64388;-78
2021/03/30 09:57:31;;;;;;;25.27;13.17;;;;;;;20.28;45.52;100432.16;114520;1193;64353;-75
2021/03/30 10:00:15;;;;;;;20.07;12.50;;;;;;;20.27;44.89;100438.59;114492;1192;64429;-77
2021/03/30 10:02:51;;;;;;;23.68;11.73;;;;;;;20.32;45.18;100436.32;114547;1193;64371;-78
2021/03/30 10:05:32;;;;;;;27.47;14.03;;;;;;;20.44;45.62;100424.35;114539;1193;64291;-78
2021/03/30 10:08:27;;;;;;;17.93;9.87;;;;;;;20.39;44.58;100432.05;114529;1193;64375;-77
2021/03/30 10:11:00;;;;;;;21.05;10.80;;;;;;;20.21;44.49;100432.72;114497;1193;64369;-77
2021/03/30 10:14:18;;;;;;;17.67;10.47;;;;;;;20.18;44.56;100430.30;114643;1192;64356;-81
2021/03/30 10:16:46;;;;;;;18.75;8.75;;;;;;;20.22;44.46;100434.42;113991;1196;64346;-76
2021/03/30 10:19:15;;;;;;;34.83;18.43;;;;;;;20.30;45.20;100422.05;114033;1196;64364;-82
2021/03/30 10:21:45;;;;;;;15.75;10.80;;;;;;;20.56;44.77;100428.69;114131;1196;64347;-76
2021/03/30 10:24:17;;;;;;;17.00;10.55;;;;;;;20.57;45.37;100419.55;114050;1195;64480;-76
2021/03/30 10:27:10;;;;;;;19.57;9.57;;;;;;;20.68;45.52;100413.98;114077;1195;64375;-76
2021/03/30 10:29:42;;;;;;;17.35;9.95;;;;;;;20.81;44.75;100415.56;114008;1196;64752;-82
2021/03/30 10:32:16;;;;;;;22.40;14.80;;;;;;;20.69;44.78;100414.84;114070;1196;64548;-76
2021/03/30 10:34:44;;;;;;;19.30;11.73;;;;;;;20.86;45.08;100413.25;114096;1196;64400;-76
2021/03/30 10:37:14;;;;;;;18.05;10.45;;;;;;;20.80;43.83;100403.81;114004;1196;64346;-76
2021/03/30 10:39:43;;;;;;;19.30;13.00;;;;;;;20.73;44.45;100408.96;114085;1195;64468;-76
2021/03/30 10:42:29;;;;;;;21.17;10.40;;;;;;;20.84;44.84;100405.25;114063;1195;64447;-76
2021/03/30 10:45:00;;;;;;;19.50;11.93;;;;;;;21.00;44.86;100410.13;114023;1196;64353;-78
2021/03/30 10:47:33;;;;;;;15.90;10.30;;;;;;;21.11;44.87;100401.78;114050;1195;64484;-76
2021/03/30 10:50:08;;;;;;;19.80;12.80;;;;;;;21.17;44.54;100397.63;113989;1196;64362;-77
2021/03/30 10:52:37;;;;;;;21.00;11.70;;;;;;;21.30;44.95;100395.49;114068;1196;64537;-80
2021/03/30 10:55:09;;;;;;;18.60;11.50;;;;;;;21.47;45.00;100388.45;114321;1192;64330;-82
2021/03/30 10:57:42;;;;;;;17.57;9.00;;;;;;;21.63;44.34;100394.13;114364;1193;64356;-78
2021/03/30 11:00:13;;;;;;;13.67;10.50;;;;;;;21.62;43.70;100384.23;114292;1193;64318;-77
2021/03/30 11:02:43;;;;;;;12.67;9.40;;;;;;;21.64;44.44;100387.67;114313;1193;64375;-76
2021/03/30 11:05:12;;;;;;;19.43;9.83;;;;;;;21.60;44.25;100386.25;114338;1192;64369;-79
2021/03/30 11:07:40;;;;;;;17.90;10.53;;;;;;;21.52;44.00;100376.13;114394;1193;64292;-78
2021/03/30 11:10:11;;;;;;;18.70;11.13;;;;;;;21.65;44.13;100378.51;114261;1193;64446;-81
2021/03/30 11:12:40;;;;;;;17.47;10.77;;;;;;;21.78;44.57;100370.86;114312;1192;64397;-76
2021/03/30 11:15:08;;;;;;;19.33;10.93;;;;;;;21.65;43.78;100375.80;114280;1192;64343;-77
2021/03/30 11:17:37;;;;;;;14.33;11.20;;;;;;;21.61;44.36;100366.21;114446;1192;64417;-78
2021/03/30 11:20:06;;;;;;;15.57;11.00;;;;;;;21.75;44.24;100362.14;114471;1192;66088;-77
2021/03/30 11:22:34;;;;;;;21.05;14.85;;;;;;;21.86;44.30;100365.52;114427;1193;64414;-75
2021/03/30 11:25:04;;;;;;;20.47;13.30;;;;;;;21.85;43.66;100355.65;114456;1193;64391;-79
2021/03/30 11:27:33;;;;;;;20.60;10.90;;;;;;;21.80;43.81;100357.11;114406;1192;64375;-76
2021/03/30 11:30:09;;;;;;;37.40;22.27;;;;;;;21.86;43.71;100346.48;114437;1193;64380;-77
2021/03/30 11:35:20;;;;;;;54.40;35.00;;;;;;;22.17;44.15;100345.33;114346;1193;64570;-79
2021/03/30 11:37:54;;;;;;;31.40;16.83;;;;;;;22.21;43.98;100341.30;114442;1192;64407;-79